sensor_id;sensor_type;location;lat;lon;timestamp;P1;durP1;ratioP1;P2;durP2;ratioP2
1811;SDS011;904;47.814;11.134;2023-05-29T00:01:24;9.48;;;5.82;;
1811;SDS011;904;47.814;11.134;2023-05-29T00:03:52;11.55;;;6.30;;
1811;SDS011;904;47.814;11.134;2023-05-29T00:06:19;9.43;;;5.15;;
1811;SDS011;904;47.814;11.134;2023-05-29T00:08:46;8.35;;;5.57;;
1811;SDS011;904;47.814;11.134;2023-05-29T00:11:14;9.50;;;6.10;;
1811;SDS011;904;47.814;11.134;2023-05-29T00:13:41;9.38;;;5.88;;
1811;SDS011;904;47.814;11.134;2023-05-29T00:16:08;9.63;;;5.82;;
1811;SDS011;904;47.814;11.134;2023-05-29T00:18:35;9.68;;;6.03;;
1811;SDS011;904;47.814;11.134;2023-05-29T00:21:09;9.13;;;6.03;;
1811;SDS011;904;47.814;11.134;2023-05-29T00:23:37;10.93;;;5.78;;
1811;SDS011;904;47.814;11.134;2023-05-29T00:26:04;9.73;;;5.80;;
1811;SDS011;904;47.814;11.134;2023-05-29T00:28:32;9.68;;;5.75;;
1811;SDS011;904;47.814;11.134;2023-05-29T00:31:01;7.35;;;4.88;;
1811;SDS011;904;47.814;11.134;2023-05-29T00:33:32;11.10;;;6.28;;
1811;SDS011;904;47.814;11.134;2023-05-29T00:36:04;9.15;;;6.50;;
1811;SDS011;904;47.814;11.134;2023-05-29T00:38:32;9.73;;;6.47;;
1811;SDS011;904;47.814;11.134;2023-05-29T00:40:59;8.38;;;4.82;;
1811;SDS011;904;47.814;11.134;2023-05-29T00:43:27;8.88;;;4.80;;
1811;SDS011;904;47.814;11.134;2023-05-29T00:45:55;9.15;;;6.10;;
1811;SDS011;904;47.814;11.134;2023-05-29T00:48:23;8.25;;;5.45;;
1811;SDS011;904;47.814;11.134;2023-05-29T00:50:51;13.15;;;6.47;;
1811;SDS011;904;47.814;11.134;2023-05-29T00:53:18;7.00;;;5.30;;
1811;SDS011;904;47.814;11.134;2023-05-29T00:55:46;7.78;;;5.85;;
1811;SDS011;904;47.814;11.134;2023-05-29T00:58:14;8.70;;;5.07;;
1811;SDS011;904;47.814;11.134;2023-05-29T01:00:41;8.13;;;5.60;;
1811;SDS011;904;47.814;11.134;2023-05-29T01:03:10;10.20;;;5.30;;
1811;SDS011;904;47.814;11.134;2023-05-29T01:05:42;8.77;;;5.15;;
1811;SDS011;904;47.814;11.134;2023-05-29T01:08:13;8.35;;;5.30;;
1811;SDS011;904;47.814;11.134;2023-05-29T01:10:40;9.25;;;5.43;;
1811;SDS011;904;47.814;11.134;2023-05-29T01:13:08;14.43;;;5.55;;
1811;SDS011;904;47.814;11.134;2023-05-29T01:15:41;10.05;;;5.53;;
1811;SDS011;904;47.814;11.134;2023-05-29T01:18:28;8.27;;;6.35;;
1811;SDS011;904;47.814;11.134;2023-05-29T01:21:11;8.20;;;4.68;;
1811;SDS011;904;47.814;11.134;2023-05-29T01:23:59;8.93;;;5.60;;
1811;SDS011;904;47.814;11.134;2023-05-29T01:26:50;15.25;;;9.30;;
1811;SDS011;904;47.814;11.134;2023-05-29T01:29:21;11.80;;;7.55;;
1811;SDS011;904;47.814;11.134;2023-05-29T01:31:50;9.98;;;6.93;;
1811;SDS011;904;47.814;11.134;2023-05-29T01:34:18;9.38;;;6.68;;
1811;SDS011;904;47.814;11.134;2023-05-29T01:36:45;10.18;;;7.07;;
1811;SDS011;904;47.814;11.134;2023-05-29T01:39:12;8.23;;;6.00;;
1811;SDS011;904;47.814;11.134;2023-05-29T01:41:40;8.07;;;5.43;;
1811;SDS011;904;47.814;11.134;2023-05-29T01:44:11;10.27;;;6.30;;
1811;SDS011;904;47.814;11.134;2023-05-29T01:46:40;8.90;;;6.05;;
1811;SDS011;904;47.814;11.134;2023-05-29T01:49:08;8.52;;;5.75;;
1811;SDS011;904;47.814;11.134;2023-05-29T01:51:36;8.57;;;6.03;;
1811;SDS011;904;47.814;11.134;2023-05-29T01:54:04;11.50;;;6.25;;
1811;SDS011;904;47.814;11.134;2023-05-29T01:56:31;8.85;;;5.68;;
1811;SDS011;904;47.814;11.134;2023-05-29T01:58:59;9.75;;;5.32;;
1811;SDS011;904;47.814;11.134;2023-05-29T02:01:30;9.07;;;5.78;;
1811;SDS011;904;47.814;11.134;2023-05-29T02:03:57;9.98;;;6.53;;
1811;SDS011;904;47.814;11.134;2023-05-29T02:06:24;8.68;;;5.53;;
1811;SDS011;904;47.814;11.134;2023-05-29T02:08:51;7.57;;;4.80;;
1811;SDS011;904;47.814;11.134;2023-05-29T02:11:18;10.55;;;5.57;;
1811;SDS011;904;47.814;11.134;2023-05-29T02:13:45;6.97;;;4.85;;
1811;SDS011;904;47.814;11.134;2023-05-29T02:16:12;9.60;;;5.60;;
1811;SDS011;904;47.814;11.134;2023-05-29T02:18:41;14.75;;;6.70;;
1811;SDS011;904;47.814;11.134;2023-05-29T02:21:12;11.82;;;6.47;;
1811;SDS011;904;47.814;11.134;2023-05-29T02:23:40;9.40;;;5.70;;
1811;SDS011;904;47.814;11.134;2023-05-29T02:26:06;9.38;;;5.22;;
1811;SDS011;904;47.814;11.134;2023-05-29T02:28:34;9.68;;;4.65;;
1811;SDS011;904;47.814;11.134;2023-05-29T02:31:01;10.68;;;5.32;;
1811;SDS011;904;47.814;11.134;2023-05-29T02:33:29;9.02;;;5.30;;
1811;SDS011;904;47.814;11.134;2023-05-29T02:35:57;7.20;;;4.80;;
1811;SDS011;904;47.814;11.134;2023-05-29T02:38:24;8.02;;;5.53;;
1811;SDS011;904;47.814;11.134;2023-05-29T02:40:51;10.48;;;6.25;;
1811;SDS011;904;47.814;11.134;2023-05-29T02:43:21;11.18;;;6.50;;
1811;SDS011;904;47.814;11.134;2023-05-29T02:45:48;6.95;;;5.18;;
1811;SDS011;904;47.814;11.134;2023-05-29T02:48:15;11.18;;;5.93;;
1811;SDS011;904;47.814;11.134;2023-05-29T02:50:42;9.35;;;5.43;;
1811;SDS011;904;47.814;11.134;2023-05-29T02:53:10;9.05;;;4.88;;
1811;SDS011;904;47.814;11.134;2023-05-29T02:55:37;11.02;;;5.50;;
1811;SDS011;904;47.814;11.134;2023-05-29T02:58:05;5.50;;;4.25;;
1811;SDS011;904;47.814;11.134;2023-05-29T03:00:32;6.68;;;4.30;;
1811;SDS011;904;47.814;11.134;2023-05-29T03:03:00;6.88;;;5.25;;
1811;SDS011;904;47.814;11.134;2023-05-29T03:05:28;8.88;;;5.80;;
1811;SDS011;904;47.814;11.134;2023-05-29T03:07:55;12.98;;;6.53;;
1811;SDS011;904;47.814;11.134;2023-05-29T03:10:23;10.20;;;6.70;;
1811;SDS011;904;47.814;11.134;2023-05-29T03:12:50;10.30;;;5.35;;
1811;SDS011;904;47.814;11.134;2023-05-29T03:15:19;10.95;;;6.00;;
1811;SDS011;904;47.814;11.134;2023-05-29T03:17:46;13.48;;;6.50;;
1811;SDS011;904;47.814;11.134;2023-05-29T03:20:13;9.45;;;5.43;;
1811;SDS011;904;47.814;11.134;2023-05-29T03:22:40;7.72;;;5.63;;
1811;SDS011;904;47.814;11.134;2023-05-29T03:25:08;7.47;;;5.40;;
1811;SDS011;904;47.814;11.134;2023-05-29T03:27:36;8.25;;;5.18;;
1811;SDS011;904;47.814;11.134;2023-05-29T03:30:03;7.80;;;4.80;;
1811;SDS011;904;47.814;11.134;2023-05-29T03:32:31;9.13;;;4.55;;
1811;SDS011;904;47.814;11.134;2023-05-29T03:34:58;10.75;;;6.07;;
1811;SDS011;904;47.814;11.134;2023-05-29T03:37:26;7.53;;;5.28;;
1811;SDS011;904;47.814;11.134;2023-05-29T03:39:53;12.00;;;5.63;;
1811;SDS011;904;47.814;11.134;2023-05-29T03:42:20;7.63;;;5.20;;
1811;SDS011;904;47.814;11.134;2023-05-29T03:44:48;9.82;;;4.80;;
1811;SDS011;904;47.814;11.134;2023-05-29T03:47:15;9.38;;;6.05;;
1811;SDS011;904;47.814;11.134;2023-05-29T03:49:42;7.82;;;4.88;;
1811;SDS011;904;47.814;11.134;2023-05-29T03:52:20;6.90;;;4.85;;
1811;SDS011;904;47.814;11.134;2023-05-29T03:54:47;8.60;;;5.60;;
1811;SDS011;904;47.814;11.134;2023-05-29T03:57:14;6.05;;;5.05;;
1811;SDS011;904;47.814;11.134;2023-05-29T03:59:43;8.55;;;4.65;;
1811;SDS011;904;47.814;11.134;2023-05-29T04:02:12;7.75;;;5.05;;
1811;SDS011;904;47.814;11.134;2023-05-29T04:04:39;6.50;;;4.85;;
1811;SDS011;904;47.814;11.134;2023-05-29T04:07:06;9.98;;;5.20;;
1811;SDS011;904;47.814;11.134;2023-05-29T04:09:33;9.82;;;4.40;;
1811;SDS011;904;47.814;11.134;2023-05-29T04:12:00;7.90;;;5.13;;
1811;SDS011;904;47.814;11.134;2023-05-29T04:14:27;10.18;;;5.10;;
1811;SDS011;904;47.814;11.134;2023-05-29T04:16:55;6.43;;;4.32;;
1811;SDS011;904;47.814;11.134;2023-05-29T04:19:24;6.50;;;4.30;;
1811;SDS011;904;47.814;11.134;2023-05-29T04:21:51;6.95;;;4.70;;
1811;SDS011;904;47.814;11.134;2023-05-29T04:24:18;7.75;;;4.78;;
1811;SDS011;904;47.814;11.134;2023-05-29T04:26:45;7.03;;;4.88;;
1811;SDS011;904;47.814;11.134;2023-05-29T04:29:12;9.43;;;4.97;;
1811;SDS011;904;47.814;11.134;2023-05-29T04:31:39;10.10;;;5.10;;
1811;SDS011;904;47.814;11.134;2023-05-29T04:34:06;9.55;;;5.60;;
1811;SDS011;904;47.814;11.134;2023-05-29T04:36:34;11.05;;;5.18;;
1811;SDS011;904;47.814;11.134;2023-05-29T04:39:04;6.40;;;4.13;;
1811;SDS011;904;47.814;11.134;2023-05-29T04:41:32;8.65;;;5.13;;
1811;SDS011;904;47.814;11.134;2023-05-29T04:43:58;7.55;;;4.78;;
1811;SDS011;904;47.814;11.134;2023-05-29T04:46:25;7.80;;;4.72;;
1811;SDS011;904;47.814;11.134;2023-05-29T04:48:53;7.53;;;5.15;;
1811;SDS011;904;47.814;11.134;2023-05-29T04:51:20;9.68;;;6.30;;
1811;SDS011;904;47.814;11.134;2023-05-29T04:53:54;8.90;;;6.88;;
1811;SDS011;904;47.814;11.134;2023-05-29T04:56:22;12.15;;;6.97;;
1811;SDS011;904;47.814;11.134;2023-05-29T04:58:49;8.27;;;5.07;;
1811;SDS011;904;47.814;11.134;2023-05-29T05:01:15;10.68;;;6.30;;
1811;SDS011;904;47.814;11.134;2023-05-29T05:03:42;9.07;;;6.10;;
1811;SDS011;904;47.814;11.134;2023-05-29T05:06:10;11.25;;;6.45;;
1811;SDS011;904;47.814;11.134;2023-05-29T05:08:37;13.27;;;6.10;;
1811;SDS011;904;47.814;11.134;2023-05-29T05:11:06;8.68;;;6.03;;
1811;SDS011;904;47.814;11.134;2023-05-29T05:13:33;7.50;;;5.70;;
1811;SDS011;904;47.814;11.134;2023-05-29T05:16:00;7.20;;;5.65;;
1811;SDS011;904;47.814;11.134;2023-05-29T05:18:27;11.88;;;4.82;;
1811;SDS011;904;47.814;11.134;2023-05-29T05:20:54;8.73;;;4.53;;
1811;SDS011;904;47.814;11.134;2023-05-29T05:23:21;7.30;;;4.70;;
1811;SDS011;904;47.814;11.134;2023-05-29T05:25:48;6.80;;;4.97;;
1811;SDS011;904;47.814;11.134;2023-05-29T05:28:16;8.63;;;4.72;;
1811;SDS011;904;47.814;11.134;2023-05-29T05:30:43;9.65;;;5.75;;
1811;SDS011;904;47.814;11.134;2023-05-29T05:33:10;11.48;;;7.28;;
1811;SDS011;904;47.814;11.134;2023-05-29T05:35:37;8.30;;;5.43;;
1811;SDS011;904;47.814;11.134;2023-05-29T05:38:04;8.30;;;5.15;;
1811;SDS011;904;47.814;11.134;2023-05-29T05:40:31;6.90;;;5.00;;
1811;SDS011;904;47.814;11.134;2023-05-29T05:42:58;10.27;;;5.93;;
1811;SDS011;904;47.814;11.134;2023-05-29T05:45:27;7.33;;;4.73;;
1811;SDS011;904;47.814;11.134;2023-05-29T05:47:54;8.73;;;5.43;;
1811;SDS011;904;47.814;11.134;2023-05-29T05:50:22;8.27;;;5.60;;
1811;SDS011;904;47.814;11.134;2023-05-29T05:52:49;7.30;;;5.00;;
1811;SDS011;904;47.814;11.134;2023-05-29T05:55:16;7.80;;;5.70;;
1811;SDS011;904;47.814;11.134;2023-05-29T05:57:43;7.50;;;5.40;;
1811;SDS011;904;47.814;11.134;2023-05-29T06:00:12;6.77;;;5.33;;
1811;SDS011;904;47.814;11.134;2023-05-29T06:02:41;8.27;;;5.37;;
1811;SDS011;904;47.814;11.134;2023-05-29T06:05:10;11.37;;;6.33;;
1811;SDS011;904;47.814;11.134;2023-05-29T06:07:37;6.70;;;4.83;;
1811;SDS011;904;47.814;11.134;2023-05-29T06:10:04;9.40;;;4.83;;
1811;SDS011;904;47.814;11.134;2023-05-29T06:12:32;8.93;;;5.30;;
1811;SDS011;904;47.814;11.134;2023-05-29T06:15:00;7.70;;;5.27;;
1811;SDS011;904;47.814;11.134;2023-05-29T06:17:27;7.17;;;4.57;;
1811;SDS011;904;47.814;11.134;2023-05-29T06:20:02;8.43;;;5.20;;
1811;SDS011;904;47.814;11.134;2023-05-29T06:22:34;8.77;;;5.50;;
1811;SDS011;904;47.814;11.134;2023-05-29T06:25:01;8.30;;;5.40;;
1811;SDS011;904;47.814;11.134;2023-05-29T06:27:28;6.23;;;5.00;;
1811;SDS011;904;47.814;11.134;2023-05-29T06:29:55;8.10;;;5.03;;
1811;SDS011;904;47.814;11.134;2023-05-29T06:32:22;6.33;;;4.80;;
1811;SDS011;904;47.814;11.134;2023-05-29T06:34:49;9.50;;;5.37;;
1811;SDS011;904;47.814;11.134;2023-05-29T06:37:18;13.93;;;6.30;;
1811;SDS011;904;47.814;11.134;2023-05-29T06:39:46;9.07;;;5.87;;
1811;SDS011;904;47.814;11.134;2023-05-29T06:42:13;6.47;;;4.70;;
1811;SDS011;904;47.814;11.134;2023-05-29T06:44:40;9.33;;;5.73;;
1811;SDS011;904;47.814;11.134;2023-05-29T06:47:07;6.37;;;5.20;;
1811;SDS011;904;47.814;11.134;2023-05-29T06:49:34;9.87;;;6.20;;
1811;SDS011;904;47.814;11.134;2023-05-29T06:52:02;9.67;;;5.47;;
1811;SDS011;904;47.814;11.134;2023-05-29T06:54:31;7.40;;;4.77;;
1811;SDS011;904;47.814;11.134;2023-05-29T06:56:57;7.37;;;4.97;;
1811;SDS011;904;47.814;11.134;2023-05-29T06:59:24;7.60;;;5.83;;
1811;SDS011;904;47.814;11.134;2023-05-29T07:01:51;9.87;;;4.77;;
1811;SDS011;904;47.814;11.134;2023-05-29T07:04:18;8.67;;;5.10;;
1811;SDS011;904;47.814;11.134;2023-05-29T07:06:45;11.80;;;5.10;;
1811;SDS011;904;47.814;11.134;2023-05-29T07:09:12;7.70;;;5.90;;
1811;SDS011;904;47.814;11.134;2023-05-29T07:11:41;9.30;;;5.03;;
1811;SDS011;904;47.814;11.134;2023-05-29T07:14:08;7.43;;;4.57;;
1811;SDS011;904;47.814;11.134;2023-05-29T07:16:35;8.13;;;4.93;;
1811;SDS011;904;47.814;11.134;2023-05-29T07:19:01;8.87;;;5.17;;
1811;SDS011;904;47.814;11.134;2023-05-29T07:21:28;7.60;;;3.97;;
1811;SDS011;904;47.814;11.134;2023-05-29T07:23:56;6.70;;;4.60;;
1811;SDS011;904;47.814;11.134;2023-05-29T07:26:23;10.03;;;4.70;;
1811;SDS011;904;47.814;11.134;2023-05-29T07:28:51;7.30;;;4.50;;
1811;SDS011;904;47.814;11.134;2023-05-29T07:31:18;5.70;;;3.90;;
1811;SDS011;904;47.814;11.134;2023-05-29T07:33:45;10.00;;;4.60;;
1811;SDS011;904;47.814;11.134;2023-05-29T07:36:14;6.53;;;4.87;;
1811;SDS011;904;47.814;11.134;2023-05-29T07:38:41;6.30;;;4.50;;
1811;SDS011;904;47.814;11.134;2023-05-29T07:41:08;7.73;;;5.60;;
1811;SDS011;904;47.814;11.134;2023-05-29T07:43:36;10.00;;;5.50;;
1811;SDS011;904;47.814;11.134;2023-05-29T07:46:04;9.07;;;4.60;;
1811;SDS011;904;47.814;11.134;2023-05-29T07:48:31;9.03;;;5.57;;
1811;SDS011;904;47.814;11.134;2023-05-29T07:50:58;7.30;;;4.47;;
1811;SDS011;904;47.814;11.134;2023-05-29T07:53:25;8.90;;;5.53;;
1811;SDS011;904;47.814;11.134;2023-05-29T07:55:52;8.37;;;5.00;;
1811;SDS011;904;47.814;11.134;2023-05-29T07:58:19;5.40;;;4.10;;
1811;SDS011;904;47.814;11.134;2023-05-29T08:00:46;5.80;;;4.43;;
1811;SDS011;904;47.814;11.134;2023-05-29T08:03:15;6.60;;;4.70;;
1811;SDS011;904;47.814;11.134;2023-05-29T08:05:42;10.33;;;5.30;;
1811;SDS011;904;47.814;11.134;2023-05-29T08:08:09;7.63;;;4.47;;
1811;SDS011;904;47.814;11.134;2023-05-29T08:10:37;12.10;;;6.63;;
1811;SDS011;904;47.814;11.134;2023-05-29T08:13:04;8.50;;;4.80;;
1811;SDS011;904;47.814;11.134;2023-05-29T08:15:31;9.13;;;4.90;;
1811;SDS011;904;47.814;11.134;2023-05-29T08:17:58;7.50;;;4.93;;
1811;SDS011;904;47.814;11.134;2023-05-29T08:20:26;6.27;;;4.50;;
1811;SDS011;904;47.814;11.134;2023-05-29T08:22:53;13.13;;;4.80;;
1811;SDS011;904;47.814;11.134;2023-05-29T08:25:20;7.47;;;5.10;;
1811;SDS011;904;47.814;11.134;2023-05-29T08:27:47;8.50;;;5.43;;
1811;SDS011;904;47.814;11.134;2023-05-29T08:30:14;10.30;;;4.77;;
1811;SDS011;904;47.814;11.134;2023-05-29T08:32:42;8.87;;;4.73;;
1811;SDS011;904;47.814;11.134;2023-05-29T08:35:08;5.90;;;4.47;;
1811;SDS011;904;47.814;11.134;2023-05-29T08:37:41;6.10;;;4.10;;
1811;SDS011;904;47.814;11.134;2023-05-29T08:40:09;7.47;;;4.57;;
1811;SDS011;904;47.814;11.134;2023-05-29T08:42:40;6.87;;;5.03;;
1811;SDS011;904;47.814;11.134;2023-05-29T08:45:13;9.37;;;5.70;;
1811;SDS011;904;47.814;11.134;2023-05-29T08:47:40;6.63;;;4.30;;
1811;SDS011;904;47.814;11.134;2023-05-29T08:50:07;6.40;;;4.43;;
1811;SDS011;904;47.814;11.134;2023-05-29T08:52:37;7.23;;;4.37;;
1811;SDS011;904;47.814;11.134;2023-05-29T08:55:07;8.00;;;5.10;;
1811;SDS011;904;47.814;11.134;2023-05-29T08:57:35;7.30;;;4.03;;
1811;SDS011;904;47.814;11.134;2023-05-29T09:00:04;5.90;;;3.73;;
1811;SDS011;904;47.814;11.134;2023-05-29T09:02:37;7.80;;;4.83;;
1811;SDS011;904;47.814;11.134;2023-05-29T09:05:04;6.70;;;4.20;;
1811;SDS011;904;47.814;11.134;2023-05-29T09:07:33;10.63;;;4.37;;
1811;SDS011;904;47.814;11.134;2023-05-29T09:10:03;6.20;;;3.93;;
1811;SDS011;904;47.814;11.134;2023-05-29T09:12:32;6.90;;;4.23;;
1811;SDS011;904;47.814;11.134;2023-05-29T09:15:02;7.07;;;4.07;;
1811;SDS011;904;47.814;11.134;2023-05-29T09:17:34;6.90;;;4.20;;
1811;SDS011;904;47.814;11.134;2023-05-29T09:20:01;6.00;;;4.07;;
1811;SDS011;904;47.814;11.134;2023-05-29T09:22:30;6.03;;;4.00;;
1811;SDS011;904;47.814;11.134;2023-05-29T09:24:57;9.53;;;4.83;;
1811;SDS011;904;47.814;11.134;2023-05-29T09:27:24;5.20;;;3.63;;
1811;SDS011;904;47.814;11.134;2023-05-29T09:29:53;6.03;;;4.13;;
1811;SDS011;904;47.814;11.134;2023-05-29T09:32:21;7.07;;;4.40;;
1811;SDS011;904;47.814;11.134;2023-05-29T09:34:48;8.57;;;4.20;;
1811;SDS011;904;47.814;11.134;2023-05-29T09:37:19;6.13;;;4.10;;
1811;SDS011;904;47.814;11.134;2023-05-29T09:39:48;5.97;;;4.13;;
1811;SDS011;904;47.814;11.134;2023-05-29T09:42:18;9.80;;;5.10;;
1811;SDS011;904;47.814;11.134;2023-05-29T09:44:49;7.23;;;4.73;;
1811;SDS011;904;47.814;11.134;2023-05-29T09:47:19;5.97;;;4.30;;
1811;SDS011;904;47.814;11.134;2023-05-29T09:49:46;7.13;;;4.63;;
1811;SDS011;904;47.814;11.134;2023-05-29T09:52:13;5.33;;;3.60;;
1811;SDS011;904;47.814;11.134;2023-05-29T09:54:41;7.80;;;4.40;;
1811;SDS011;904;47.814;11.134;2023-05-29T09:57:12;6.77;;;4.93;;
1811;SDS011;904;47.814;11.134;2023-05-29T09:59:40;6.73;;;4.10;;
1811;SDS011;904;47.814;11.134;2023-05-29T10:02:10;8.63;;;5.40;;
1811;SDS011;904;47.814;11.134;2023-05-29T10:04:40;7.93;;;4.43;;
1811;SDS011;904;47.814;11.134;2023-05-29T10:07:10;8.20;;;3.87;;
1811;SDS011;904;47.814;11.134;2023-05-29T10:09:47;5.80;;;3.83;;
1811;SDS011;904;47.814;11.134;2023-05-29T10:12:19;8.70;;;5.00;;
1811;SDS011;904;47.814;11.134;2023-05-29T10:14:48;8.80;;;4.60;;
1811;SDS011;904;47.814;11.134;2023-05-29T10:17:16;6.20;;;4.40;;
1811;SDS011;904;47.814;11.134;2023-05-29T10:19:50;7.77;;;4.50;;
1811;SDS011;904;47.814;11.134;2023-05-29T10:22:19;6.53;;;4.60;;
1811;SDS011;904;47.814;11.134;2023-05-29T10:24:49;8.17;;;5.00;;
1811;SDS011;904;47.814;11.134;2023-05-29T10:27:18;6.70;;;4.73;;
1811;SDS011;904;47.814;11.134;2023-05-29T10:29:46;6.47;;;4.20;;
1811;SDS011;904;47.814;11.134;2023-05-29T10:32:20;6.87;;;4.97;;
1811;SDS011;904;47.814;11.134;2023-05-29T10:34:53;6.80;;;4.33;;
1811;SDS011;904;47.814;11.134;2023-05-29T10:37:29;7.67;;;4.53;;
1811;SDS011;904;47.814;11.134;2023-05-29T10:40:06;6.80;;;4.67;;
1811;SDS011;904;47.814;11.134;2023-05-29T10:42:40;5.80;;;3.63;;
1811;SDS011;904;47.814;11.134;2023-05-29T10:45:11;6.67;;;4.93;;
1811;SDS011;904;47.814;11.134;2023-05-29T10:51:08;7.20;;;5.00;;
1811;SDS011;904;47.814;11.134;2023-05-29T10:53:50;5.30;;;4.07;;
1811;SDS011;904;47.814;11.134;2023-05-29T10:56:20;7.20;;;4.10;;
1811;SDS011;904;47.814;11.134;2023-05-29T10:58:53;6.37;;;3.77;;
1811;SDS011;904;47.814;11.134;2023-05-29T11:01:21;9.43;;;5.20;;
1811;SDS011;904;47.814;11.134;2023-05-29T11:03:49;4.67;;;3.50;;
1811;SDS011;904;47.814;11.134;2023-05-29T11:06:19;6.27;;;3.97;;
1811;SDS011;904;47.814;11.134;2023-05-29T11:08:52;5.23;;;4.10;;
1811;SDS011;904;47.814;11.134;2023-05-29T11:11:28;6.57;;;4.40;;
1811;SDS011;904;47.814;11.134;2023-05-29T11:13:57;11.33;;;3.93;;
1811;SDS011;904;47.814;11.134;2023-05-29T11:16:37;6.37;;;4.00;;
1811;SDS011;904;47.814;11.134;2023-05-29T11:19:05;7.10;;;4.60;;
1811;SDS011;904;47.814;11.134;2023-05-29T11:21:40;7.70;;;3.97;;
1811;SDS011;904;47.814;11.134;2023-05-29T11:24:20;5.20;;;3.63;;
1811;SDS011;904;47.814;11.134;2023-05-29T11:26:48;6.63;;;4.30;;
1811;SDS011;904;47.814;11.134;2023-05-29T11:29:20;7.63;;;4.20;;
1811;SDS011;904;47.814;11.134;2023-05-29T11:31:48;8.67;;;4.40;;
1811;SDS011;904;47.814;11.134;2023-05-29T11:34:21;9.93;;;4.67;;
1811;SDS011;904;47.814;11.134;2023-05-29T11:36:52;5.07;;;4.30;;
1811;SDS011;904;47.814;11.134;2023-05-29T11:39:19;6.70;;;4.53;;
1811;SDS011;904;47.814;11.134;2023-05-29T11:41:49;7.80;;;4.27;;
1811;SDS011;904;47.814;11.134;2023-05-29T11:44:17;6.77;;;4.50;;
1811;SDS011;904;47.814;11.134;2023-05-29T11:46:44;6.80;;;4.53;;
1811;SDS011;904;47.814;11.134;2023-05-29T11:49:11;8.23;;;4.47;;
1811;SDS011;904;47.814;11.134;2023-05-29T11:51:40;5.77;;;3.70;;
1811;SDS011;904;47.814;11.134;2023-05-29T11:54:12;7.13;;;4.30;;
1811;SDS011;904;47.814;11.134;2023-05-29T11:56:39;6.53;;;3.70;;
1811;SDS011;904;47.814;11.134;2023-05-29T11:59:11;7.07;;;4.43;;
1811;SDS011;904;47.814;11.134;2023-05-29T12:01:38;7.23;;;4.53;;
1811;SDS011;904;47.814;11.134;2023-05-29T12:04:13;5.87;;;3.80;;
1811;SDS011;904;47.814;11.134;2023-05-29T12:06:41;7.10;;;4.90;;
1811;SDS011;904;47.814;11.134;2023-05-29T12:09:09;6.23;;;4.73;;
1811;SDS011;904;47.814;11.134;2023-05-29T12:11:51;7.20;;;4.50;;
1811;SDS011;904;47.814;11.134;2023-05-29T12:14:18;6.10;;;4.30;;
1811;SDS011;904;47.814;11.134;2023-05-29T12:16:45;6.70;;;4.27;;
1811;SDS011;904;47.814;11.134;2023-05-29T12:19:13;5.17;;;3.70;;
1811;SDS011;904;47.814;11.134;2023-05-29T12:21:41;6.80;;;4.73;;
1811;SDS011;904;47.814;11.134;2023-05-29T12:24:08;6.60;;;4.77;;
1811;SDS011;904;47.814;11.134;2023-05-29T12:26:36;5.90;;;4.43;;
1811;SDS011;904;47.814;11.134;2023-05-29T12:29:03;7.13;;;4.20;;
1811;SDS011;904;47.814;11.134;2023-05-29T12:31:31;7.80;;;5.27;;
1811;SDS011;904;47.814;11.134;2023-05-29T12:33:59;6.77;;;4.50;;
1811;SDS011;904;47.814;11.134;2023-05-29T12:36:27;6.57;;;4.17;;
1811;SDS011;904;47.814;11.134;2023-05-29T12:38:56;13.27;;;4.60;;
1811;SDS011;904;47.814;11.134;2023-05-29T12:41:24;5.63;;;3.70;;
1811;SDS011;904;47.814;11.134;2023-05-29T12:43:54;8.23;;;4.17;;
1811;SDS011;904;47.814;11.134;2023-05-29T12:46:21;8.13;;;4.60;;
1811;SDS011;904;47.814;11.134;2023-05-29T12:48:49;6.67;;;3.93;;
1811;SDS011;904;47.814;11.134;2023-05-29T12:51:22;5.60;;;4.10;;
1811;SDS011;904;47.814;11.134;2023-05-29T12:53:49;6.50;;;4.20;;
1811;SDS011;904;47.814;11.134;2023-05-29T12:56:19;6.60;;;4.57;;
1811;SDS011;904;47.814;11.134;2023-05-29T12:58:47;7.13;;;4.17;;
1811;SDS011;904;47.814;11.134;2023-05-29T13:01:16;7.53;;;4.63;;
1811;SDS011;904;47.814;11.134;2023-05-29T13:03:43;7.17;;;4.00;;
1811;SDS011;904;47.814;11.134;2023-05-29T13:06:10;9.13;;;4.40;;
1811;SDS011;904;47.814;11.134;2023-05-29T13:08:37;5.33;;;3.70;;
1811;SDS011;904;47.814;11.134;2023-05-29T13:11:04;6.17;;;4.37;;
1811;SDS011;904;47.814;11.134;2023-05-29T13:13:31;8.30;;;5.20;;
1811;SDS011;904;47.814;11.134;2023-05-29T13:15:58;6.90;;;4.33;;
1811;SDS011;904;47.814;11.134;2023-05-29T13:18:27;6.67;;;4.30;;
1811;SDS011;904;47.814;11.134;2023-05-29T13:20:53;5.30;;;4.07;;
1811;SDS011;904;47.814;11.134;2023-05-29T13:23:20;6.10;;;4.73;;
1811;SDS011;904;47.814;11.134;2023-05-29T13:25:47;5.90;;;4.20;;
1811;SDS011;904;47.814;11.134;2023-05-29T13:28:15;5.87;;;3.77;;
1811;SDS011;904;47.814;11.134;2023-05-29T13:30:42;6.83;;;3.90;;
1811;SDS011;904;47.814;11.134;2023-05-29T13:33:09;6.87;;;4.10;;
1811;SDS011;904;47.814;11.134;2023-05-29T13:35:42;7.43;;;4.40;;
1811;SDS011;904;47.814;11.134;2023-05-29T13:38:09;7.23;;;4.70;;
1811;SDS011;904;47.814;11.134;2023-05-29T13:40:36;5.23;;;3.67;;
1811;SDS011;904;47.814;11.134;2023-05-29T13:43:03;7.37;;;4.80;;
1811;SDS011;904;47.814;11.134;2023-05-29T13:45:29;5.83;;;4.20;;
1811;SDS011;904;47.814;11.134;2023-05-29T13:47:56;6.97;;;4.10;;
1811;SDS011;904;47.814;11.134;2023-05-29T13:50:23;6.23;;;4.20;;
1811;SDS011;904;47.814;11.134;2023-05-29T13:52:52;6.67;;;4.30;;
1811;SDS011;904;47.814;11.134;2023-05-29T13:55:19;7.90;;;4.07;;
1811;SDS011;904;47.814;11.134;2023-05-29T13:57:46;5.50;;;3.70;;
1811;SDS011;904;47.814;11.134;2023-05-29T14:00:13;7.27;;;3.83;;
1811;SDS011;904;47.814;11.134;2023-05-29T14:02:41;8.43;;;3.73;;
1811;SDS011;904;47.814;11.134;2023-05-29T14:05:08;5.53;;;3.70;;
1811;SDS011;904;47.814;11.134;2023-05-29T14:07:36;6.30;;;4.20;;
1811;SDS011;904;47.814;11.134;2023-05-29T14:10:05;6.17;;;4.17;;
1811;SDS011;904;47.814;11.134;2023-05-29T14:12:32;6.80;;;4.10;;
1811;SDS011;904;47.814;11.134;2023-05-29T14:15:00;6.40;;;3.97;;
1811;SDS011;904;47.814;11.134;2023-05-29T14:17:29;5.67;;;3.90;;
1811;SDS011;904;47.814;11.134;2023-05-29T14:19:56;7.73;;;4.40;;
1811;SDS011;904;47.814;11.134;2023-05-29T14:22:23;6.50;;;4.03;;
1811;SDS011;904;47.814;11.134;2023-05-29T14:24:56;6.70;;;4.43;;
1811;SDS011;904;47.814;11.134;2023-05-29T14:27:27;6.73;;;4.00;;
1811;SDS011;904;47.814;11.134;2023-05-29T14:30:21;7.13;;;4.50;;
1811;SDS011;904;47.814;11.134;2023-05-29T14:32:50;7.40;;;4.33;;
1811;SDS011;904;47.814;11.134;2023-05-29T14:35:17;9.27;;;4.30;;
1811;SDS011;904;47.814;11.134;2023-05-29T14:37:44;5.87;;;4.03;;
1811;SDS011;904;47.814;11.134;2023-05-29T14:40:11;7.00;;;3.90;;
1811;SDS011;904;47.814;11.134;2023-05-29T14:42:45;5.33;;;3.60;;
1811;SDS011;904;47.814;11.134;2023-05-29T14:45:12;6.03;;;3.40;;
1811;SDS011;904;47.814;11.134;2023-05-29T14:47:39;6.00;;;4.23;;
1811;SDS011;904;47.814;11.134;2023-05-29T14:50:10;6.37;;;4.30;;
1811;SDS011;904;47.814;11.134;2023-05-29T14:52:38;5.87;;;4.30;;
1811;SDS011;904;47.814;11.134;2023-05-29T14:55:08;5.47;;;3.40;;
1811;SDS011;904;47.814;11.134;2023-05-29T14:57:35;6.50;;;4.60;;
1811;SDS011;904;47.814;11.134;2023-05-29T15:00:05;8.60;;;4.10;;
1811;SDS011;904;47.814;11.134;2023-05-29T15:02:33;6.40;;;4.23;;
1811;SDS011;904;47.814;11.134;2023-05-29T15:05:05;6.47;;;3.87;;
1811;SDS011;904;47.814;11.134;2023-05-29T15:07:34;6.90;;;4.40;;
1811;SDS011;904;47.814;11.134;2023-05-29T15:10:02;5.67;;;3.60;;
1811;SDS011;904;47.814;11.134;2023-05-29T15:12:30;7.73;;;4.10;;
1811;SDS011;904;47.814;11.134;2023-05-29T15:14:58;6.10;;;3.93;;
1811;SDS011;904;47.814;11.134;2023-05-29T15:17:27;6.87;;;4.13;;
1811;SDS011;904;47.814;11.134;2023-05-29T15:19:54;5.97;;;4.63;;
1811;SDS011;904;47.814;11.134;2023-05-29T15:22:21;7.63;;;4.10;;
1811;SDS011;904;47.814;11.134;2023-05-29T15:24:53;8.27;;;3.70;;